BIENTÔT MET'MAP
version 2.0 !

Prévue avant fin octobre,
la nouvelle version sera
plus belle, plus complète
et hébergée sur un serveur
3 fois plus puissant...
et toujours gratuite !


Pas compatible ?
Essayez la version Mobile !

SE CONNECTER : | S'inscrire | Disclaimer | Découvrir Orbifly |
Code OACI :

TAF - ETNS Schleswig - 20 Feb 2020 12:22 UTC - Data Source NOAA   


- Altitude de l'aérodrome : 70 ft
- Code IATA : WBG
- Pas de NOTAMs connus.


ETNS - Schleswig

Dernier METAR connu : 2015/08/11 07:20 ETNS 110720Z VRB02KT 9999 FEW015 SCT030 BKN230 19/16 Q1017 BLU+
TAF TAF ETNS
Valide du 20 à 09h jusqu'au 20 à 18h UTC


200824Z 2009/2018 18010G20KT 5000 -RADZ SCT003 BKN010 BKN050
TEMPO 2009/2014 20018G28KT 2000 DZRA FEW002 OVC003
TEMPO 2014/2018 19018G30KT 8000 NSW FEW010 BKN015 BKN050 BY ETGL

Source NOAA


MET'MAP, la Météo Aéronautique d'un coup d'oeil ! - Copyright ORBIFLY Décembre 2007

Développement & Programmation : Alexandra Zaïnal
Co-Développement : Marc-Olivier Méhu
Soutien technique & logistique : Manuel Goepfert
Conception & Financement : Baudouin d'Aumeries